createdAt,value
2023-04-24T00:00:13.842Z,57.63
2023-04-24T00:00:48.143Z,57.40
2023-04-24T00:01:21.803Z,57.30
2023-04-24T00:01:54.438Z,57.75
2023-04-24T00:02:27.539Z,57.42
2023-04-24T00:03:00.343Z,57.05
2023-04-24T00:03:34.689Z,57.80
2023-04-24T00:04:08.184Z,57.75
2023-04-24T00:04:41.452Z,57.53
2023-04-24T00:05:15.845Z,57.55
2023-04-24T00:05:48.657Z,57.58
2023-04-24T00:06:21.441Z,57.60
2023-04-24T00:06:58.282Z,57.30
2023-04-24T00:07:31.229Z,57.95
2023-04-24T00:08:03.853Z,57.42
2023-04-24T00:08:37.394Z,57.38
2023-04-24T00:09:10.854Z,57.95
2023-04-24T00:09:44.702Z,57.70
2023-04-24T00:10:17.510Z,57.40
2023-04-24T00:10:50.657Z,57.35
2023-04-24T00:11:24.211Z,57.65
2023-04-24T00:11:57.126Z,57.78
2023-04-24T00:12:29.727Z,57.55
2023-04-24T00:13:02.199Z,57.45
2023-04-24T00:13:35.754Z,57.75
2023-04-24T00:14:08.346Z,57.25
2023-04-24T00:14:40.965Z,57.20
2023-04-24T00:15:14.864Z,57.70
2023-04-24T00:15:48.379Z,57.85
2023-04-24T00:16:21.127Z,57.33
2023-04-24T00:16:53.716Z,57.77
2023-04-24T00:17:27.254Z,58.22
2023-04-24T00:17:59.925Z,56.97
2023-04-24T00:18:32.518Z,57.65
2023-04-24T00:19:06.863Z,57.92
2023-04-24T00:19:40.583Z,57.70
2023-04-24T00:20:13.182Z,57.60
2023-04-24T00:20:47.749Z,57.53
2023-04-24T00:21:20.248Z,57.97
2023-04-24T00:21:52.909Z,57.80
2023-04-24T00:22:26.493Z,57.90
2023-04-24T00:22:59.018Z,57.78
2023-04-24T00:23:32.205Z,57.50
2023-04-24T00:24:05.955Z,57.45
2023-04-24T00:24:38.444Z,57.70
2023-04-24T00:25:10.934Z,57.63
2023-04-24T00:25:44.535Z,58.25
2023-04-24T00:26:17.005Z,58.13
2023-04-24T00:26:49.447Z,57.97
2023-04-24T00:27:22.959Z,58.03
2023-04-24T00:27:55.509Z,57.40
2023-04-24T00:28:28.083Z,57.72
2023-04-24T00:29:01.654Z,57.75
2023-04-24T00:29:34.287Z,58.67
2023-04-24T00:30:08.001Z,58.13
2023-04-24T00:30:42.854Z,57.95
2023-04-24T00:31:15.579Z,57.80
2023-04-24T00:31:49.127Z,58.47
2023-04-24T00:32:21.724Z,58.28
2023-04-24T00:32:54.762Z,57.63
2023-04-24T00:33:30.813Z,57.97
2023-04-24T00:34:03.590Z,57.92
2023-04-24T00:34:36.144Z,58.20
2023-04-24T00:35:10.486Z,58.92
2023-04-24T00:35:43.015Z,58.30
2023-04-24T00:36:17.216Z,57.90
2023-04-24T00:36:53.147Z,58.30
2023-04-24T00:37:25.601Z,57.88
2023-04-24T00:37:58.164Z,58.38
2023-04-24T00:38:31.707Z,58.78
2023-04-24T00:39:04.319Z,58.35
2023-04-24T00:39:36.766Z,58.10
2023-04-24T00:40:11.285Z,58.25
2023-04-24T00:40:43.785Z,58.20
2023-04-24T00:41:16.539Z,58.58
2023-04-24T00:41:51.843Z,58.25
2023-04-24T00:42:24.757Z,58.10
2023-04-24T00:42:57.661Z,58.03
2023-04-24T00:43:31.540Z,58.25
2023-04-24T00:44:04.133Z,58.53
2023-04-24T00:44:37.029Z,58.08
2023-04-24T00:45:11.260Z,57.95
2023-04-24T00:45:45.474Z,57.65
2023-04-24T00:46:18.513Z,57.63
2023-04-24T00:46:55.735Z,58.15
2023-04-24T00:47:29.222Z,58.58
2023-04-24T00:48:02.802Z,57.40
2023-04-24T00:48:36.690Z,58.10
2023-04-24T00:49:09.167Z,57.63
2023-04-24T00:49:41.891Z,58.08
2023-04-24T00:50:18.124Z,57.80
2023-04-24T00:50:50.608Z,57.55
2023-04-24T00:51:23.168Z,57.58
2023-04-24T00:51:57.823Z,57.97
2023-04-24T00:52:32.107Z,57.42
2023-04-24T00:53:04.688Z,57.30
2023-04-24T00:53:38.419Z,57.67
2023-04-24T00:54:11.224Z,57.13
2023-04-24T00:54:43.767Z,57.40
2023-04-24T00:55:17.279Z,57.80
2023-04-24T00:55:49.875Z,57.70
2023-04-24T00:56:22.666Z,57.30
2023-04-24T00:56:56.119Z,58.58
2023-04-24T00:57:29.065Z,57.25
2023-04-24T00:58:01.873Z,57.67
2023-04-24T00:58:35.534Z,57.88
2023-04-24T00:59:08.410Z,58.25
2023-04-24T00:59:42.365Z,57.53
2023-04-24T01:00:17.497Z,57.53
2023-04-24T01:00:54.098Z,58.28
2023-04-24T01:01:26.688Z,57.83
2023-04-24T01:02:00.754Z,58.30
2023-04-24T01:02:35.660Z,58.25
2023-04-24T01:03:09.072Z,58.03
2023-04-24T01:03:43.602Z,57.70
2023-04-24T01:04:18.978Z,57.97
2023-04-24T01:04:52.451Z,57.53
2023-04-24T01:05:26.035Z,58.10
2023-04-24T01:05:58.603Z,57.63
2023-04-24T01:06:32.244Z,57.92
2023-04-24T01:07:10.865Z,58.15
2023-04-24T01:07:46.597Z,58.42
2023-04-24T01:08:21.046Z,58.30
2023-04-24T01:08:53.894Z,57.72
2023-04-24T01:09:27.192Z,57.60
2023-04-24T01:10:00.790Z,57.60
2023-04-24T01:10:35.793Z,57.78
2023-04-24T01:11:09.543Z,57.72
2023-04-24T01:11:43.738Z,57.90
2023-04-24T01:12:18.486Z,57.90
2023-04-24T01:12:53.742Z,57.78
2023-04-24T01:13:26.381Z,57.30
2023-04-24T01:13:59.976Z,58.10
2023-04-24T01:14:34.122Z,58.17
2023-04-24T01:15:07.788Z,57.90
2023-04-24T01:15:41.532Z,57.78
2023-04-24T01:16:18.441Z,58.13
2023-04-24T01:16:51.289Z,58.13
2023-04-24T01:17:23.781Z,58.03
2023-04-24T01:17:57.442Z,58.00
2023-04-24T01:18:30.061Z,58.22
2023-04-24T01:19:03.451Z,58.45
2023-04-24T01:19:36.923Z,58.22
2023-04-24T01:20:11.750Z,58.17
2023-04-24T01:20:46.476Z,58.50
2023-04-24T01:21:22.158Z,58.83
2023-04-24T01:21:59.541Z,59.50
2023-04-24T01:22:34.152Z,58.65
2023-04-24T01:23:07.676Z,59.75
2023-04-24T01:23:40.455Z,60.30
2023-04-24T01:24:13.086Z,60.25
2023-04-24T01:24:46.680Z,60.15
2023-04-24T01:25:19.344Z,59.53
2023-04-24T01:25:52.617Z,60.88
2023-04-24T01:26:26.611Z,61.13
2023-04-24T01:26:59.292Z,60.90
2023-04-24T01:27:31.767Z,60.65
2023-04-24T01:28:05.963Z,61.03
2023-04-24T01:28:38.738Z,61.13
2023-04-24T01:29:11.824Z,60.70
2023-04-24T01:29:45.569Z,61.03
2023-04-24T01:30:18.306Z,60.13
2023-04-24T01:30:50.956Z,60.50
2023-04-24T01:31:24.817Z,60.95
2023-04-24T01:32:00.853Z,60.88
2023-04-24T01:32:34.769Z,60.90
2023-04-24T01:33:07.604Z,60.92
2023-04-24T01:33:40.248Z,60.50
2023-04-24T01:34:13.180Z,60.40
2023-04-24T01:34:47.257Z,60.47
2023-04-24T01:35:19.883Z,60.95
2023-04-24T01:35:52.804Z,60.58
2023-04-24T01:36:28.214Z,60.72
2023-04-24T01:37:01.607Z,61.10
2023-04-24T01:37:35.748Z,61.45
2023-04-24T01:38:10.579Z,60.60
2023-04-24T01:38:43.121Z,61.85
2023-04-24T01:39:17.513Z,61.15
2023-04-24T01:39:51.079Z,60.53
2023-04-24T01:40:24.754Z,60.88
2023-04-24T01:40:57.275Z,61.00
2023-04-24T01:41:32.648Z,60.25
2023-04-24T01:42:06.946Z,60.05
2023-04-24T01:42:42.820Z,60.55
2023-04-24T01:43:15.529Z,59.92
2023-04-24T01:43:48.464Z,61.17
2023-04-24T01:44:22.028Z,60.33
2023-04-24T01:44:54.801Z,59.90
2023-04-24T01:45:27.396Z,60.85
2023-04-24T01:46:00.883Z,60.60
2023-04-24T01:46:35.769Z,59.75
2023-04-24T01:47:10.567Z,59.85
2023-04-24T01:47:44.628Z,60.97
2023-04-24T01:48:17.156Z,60.40
2023-04-24T01:48:49.953Z,60.20
2023-04-24T01:49:23.589Z,60.90
2023-04-24T01:49:56.229Z,59.80
2023-04-24T01:50:28.797Z,60.13
2023-04-24T01:51:02.935Z,59.80
2023-04-24T01:51:36.228Z,59.55
2023-04-24T01:52:09.368Z,59.55
2023-04-24T01:52:44.566Z,59.30
2023-04-24T01:53:17.150Z,59.25
2023-04-24T01:53:49.769Z,59.45
2023-04-24T01:54:23.308Z,60.85
2023-04-24T01:54:56.806Z,58.90
2023-04-24T01:55:29.369Z,59.42
2023-04-24T01:56:03.690Z,59.85
2023-04-24T01:56:36.750Z,58.97
2023-04-24T01:57:09.671Z,60.58
2023-04-24T01:57:43.225Z,59.35
2023-04-24T01:58:15.944Z,59.22
2023-04-24T01:58:49.043Z,59.72
2023-04-24T01:59:25.108Z,60.08
2023-04-24T01:59:57.771Z,59.55
2023-04-24T02:02:10.792Z,59.25
2023-04-24T02:02:47.377Z,59.20
2023-04-24T02:03:20.981Z,58.95
2023-04-24T02:03:56.676Z,58.60
2023-04-24T02:04:29.715Z,59.25
2023-04-24T02:05:02.269Z,58.47
2023-04-24T02:05:35.804Z,58.97
2023-04-24T02:06:09.467Z,58.67
2023-04-24T02:06:41.956Z,58.78
2023-04-24T02:07:15.552Z,58.28
2023-04-24T02:07:49.428Z,58.50
2023-04-24T02:08:21.861Z,58.55
2023-04-24T02:08:55.740Z,58.10
2023-04-24T02:09:29.436Z,58.67
2023-04-24T02:10:02.567Z,59.50
2023-04-24T02:10:35.026Z,58.20
2023-04-24T02:11:08.673Z,58.42
2023-04-24T02:11:41.157Z,58.47
2023-04-24T02:12:13.801Z,58.53
2023-04-24T02:12:47.432Z,58.40
2023-04-24T02:13:19.935Z,58.30
2023-04-24T02:13:52.647Z,57.90
2023-04-24T02:14:26.154Z,57.80
2023-04-24T02:14:58.731Z,58.05
2023-04-24T02:15:31.297Z,57.83
2023-04-24T02:16:06.668Z,57.97
2023-04-24T02:16:39.306Z,58.40
2023-04-24T02:17:13.287Z,58.63
2023-04-24T02:17:46.809Z,58.83
2023-04-24T02:18:19.308Z,58.00
2023-04-24T02:18:51.776Z,57.90
2023-04-24T02:19:25.235Z,58.38
2023-04-24T02:19:57.732Z,58.13
2023-04-24T02:20:30.261Z,58.10
2023-04-24T02:21:03.874Z,58.03
2023-04-24T02:21:36.392Z,58.20
2023-04-24T02:22:08.976Z,58.05
2023-04-24T02:22:42.440Z,57.55
2023-04-24T02:23:16.496Z,58.05
2023-04-24T02:23:49.072Z,57.95
2023-04-24T02:24:22.547Z,57.97
2023-04-24T02:24:55.162Z,58.20
2023-04-24T02:25:27.660Z,57.60
2023-04-24T02:26:02.733Z,57.75
2023-04-24T02:26:35.508Z,57.90
2023-04-24T02:27:08.128Z,58.03
2023-04-24T02:27:41.554Z,58.05
2023-04-24T02:28:14.150Z,57.95
2023-04-24T02:28:46.692Z,58.33
2023-04-24T02:29:20.220Z,58.25
2023-04-24T02:29:52.674Z,58.13
2023-04-24T02:30:25.620Z,58.20
2023-04-24T02:31:00.914Z,58.20
2023-04-24T02:31:33.553Z,57.80
2023-04-24T02:32:06.154Z,58.35
2023-04-24T02:32:40.459Z,57.83
2023-04-24T02:33:17.760Z,57.42
2023-04-24T02:33:50.264Z,57.72
2023-04-24T02:34:24.118Z,57.83
2023-04-24T02:34:56.606Z,58.58
2023-04-24T02:35:29.206Z,58.13
2023-04-24T02:36:02.935Z,57.83
2023-04-24T02:36:35.477Z,57.95
2023-04-24T02:37:08.043Z,57.72
2023-04-24T02:37:40.550Z,57.50
2023-04-24T02:38:14.101Z,57.63
2023-04-24T02:38:47.939Z,57.78
2023-04-24T02:39:20.550Z,57.70
2023-04-24T02:39:54.052Z,58.00
2023-04-24T02:40:26.711Z,58.03
2023-04-24T02:40:59.209Z,58.25
2023-04-24T02:41:33.855Z,57.72
2023-04-24T02:42:06.448Z,58.00
2023-04-24T02:42:39.973Z,58.03
2023-04-24T02:43:12.537Z,58.30
2023-04-24T02:43:45.101Z,58.13
2023-04-24T02:44:19.301Z,58.00
2023-04-24T02:44:56.776Z,58.03
2023-04-24T02:45:29.298Z,57.63
2023-04-24T02:46:02.125Z,58.25
2023-04-24T02:46:35.815Z,58.45
2023-04-24T02:47:09.592Z,58.35
2023-04-24T02:47:42.109Z,57.95
2023-04-24T02:48:15.752Z,57.90
2023-04-24T02:48:48.375Z,58.20
2023-04-24T02:49:21.346Z,57.95
2023-04-24T02:49:54.808Z,58.28
2023-04-24T02:50:27.269Z,57.92
2023-04-24T02:50:59.779Z,58.42
2023-04-24T02:51:33.404Z,58.20
2023-04-24T02:52:06.134Z,58.50
2023-04-24T02:52:38.712Z,58.60
2023-04-24T02:53:12.184Z,58.40
2023-04-24T02:53:44.744Z,58.38
2023-04-24T02:54:18.573Z,58.30
2023-04-24T02:54:52.022Z,59.40
2023-04-24T02:55:24.553Z,58.13
2023-04-24T02:55:57.116Z,58.30
2023-04-24T02:56:30.662Z,57.83
2023-04-24T02:57:05.084Z,58.45
2023-04-24T02:57:38.016Z,58.65
2023-04-24T02:58:13.795Z,58.65
2023-04-24T02:58:46.409Z,59.20
2023-04-24T02:59:18.940Z,59.08
2023-04-24T02:59:52.505Z,59.08
2023-04-24T03:00:25.249Z,59.03
2023-04-24T03:00:57.786Z,58.90
2023-04-24T03:01:31.731Z,59.72
2023-04-24T03:02:04.276Z,58.47
2023-04-24T03:02:36.962Z,58.90
2023-04-24T03:03:10.843Z,58.55
2023-04-24T03:03:43.639Z,59.08
2023-04-24T03:04:16.750Z,59.22
2023-04-24T03:04:50.463Z,59.63
2023-04-24T03:05:23.234Z,59.00
2023-04-24T03:05:56.660Z,59.50
2023-04-24T03:06:30.196Z,59.25
2023-04-24T03:07:02.684Z,60.17
2023-04-24T03:07:39.815Z,59.47
2023-04-24T03:08:12.267Z,59.05
2023-04-24T03:08:45.897Z,59.72
2023-04-24T03:09:19.937Z,59.20
2023-04-24T03:09:53.883Z,60.42
2023-04-24T03:10:27.786Z,60.50
2023-04-24T03:11:00.432Z,59.78
2023-04-24T03:11:32.914Z,59.65
2023-04-24T03:12:06.495Z,59.97
2023-04-24T03:12:38.933Z,60.45
2023-04-24T03:13:11.486Z,60.50
2023-04-24T03:13:45.568Z,59.40
2023-04-24T03:14:18.081Z,59.97
2023-04-24T03:14:53.930Z,60.28
2023-04-24T03:15:28.613Z,60.17
2023-04-24T03:16:01.988Z,59.55
2023-04-24T03:16:34.782Z,59.88
2023-04-24T03:17:11.005Z,60.20
2023-04-24T03:17:44.247Z,59.90
2023-04-24T03:18:17.253Z,60.60
2023-04-24T03:18:51.278Z,59.35
2023-04-24T03:19:25.671Z,59.33
2023-04-24T03:20:10.870Z,59.15
2023-04-24T03:20:47.578Z,59.30
2023-04-24T03:21:21.632Z,59.00
2023-04-24T03:21:55.045Z,59.13
2023-04-24T03:22:28.617Z,58.85
2023-04-24T03:23:04.820Z,58.42
2023-04-24T03:23:38.311Z,59.00
2023-04-24T03:24:13.519Z,58.45
2023-04-24T03:24:47.756Z,58.53
2023-04-24T03:25:23.564Z,58.53
2023-04-24T03:25:58.142Z,58.85
2023-04-24T03:26:31.588Z,58.97
2023-04-24T03:27:22.650Z,58.78
2023-04-24T03:28:04.806Z,59.13
2023-04-24T03:28:59.816Z,58.60
2023-04-24T03:29:32.632Z,59.63
2023-04-24T03:30:06.733Z,58.67
2023-04-24T03:30:49.329Z,58.58
2023-04-24T03:31:23.352Z,58.90
2023-04-24T03:31:56.135Z,58.90
2023-04-24T03:32:29.911Z,59.42
2023-04-24T03:33:02.971Z,59.30
2023-04-24T03:33:39.164Z,59.45
2023-04-24T03:34:14.336Z,58.83
2023-04-24T03:34:46.910Z,58.85
2023-04-24T03:35:22.270Z,60.17
2023-04-24T03:35:56.076Z,59.55
2023-04-24T03:36:30.015Z,59.70
2023-04-24T03:37:02.583Z,60.30
2023-04-24T03:37:37.677Z,59.90
2023-04-24T03:38:39.266Z,60.15
2023-04-24T03:39:34.906Z,60.65
2023-04-24T03:40:10.690Z,61.33
2023-04-24T03:40:43.969Z,61.58
2023-04-24T03:41:37.667Z,60.92
2023-04-24T03:42:16.240Z,61.50
2023-04-24T03:42:56.706Z,62.45
2023-04-24T03:43:30.955Z,61.90
2023-04-24T03:44:05.713Z,62.42
2023-04-24T03:44:38.370Z,61.42
2023-04-24T03:45:12.573Z,61.97
2023-04-24T03:45:48.281Z,62.10
2023-04-24T03:46:21.536Z,62.75
2023-04-24T03:47:01.114Z,62.33
2023-04-24T03:47:33.725Z,62.83
2023-04-24T03:48:08.609Z,62.42
2023-04-24T03:48:41.420Z,61.45
2023-04-24T03:49:16.069Z,61.85
2023-04-24T03:49:51.008Z,62.88
2023-04-24T03:50:23.743Z,62.00
2023-04-24T03:50:57.359Z,63.42
2023-04-24T03:51:32.528Z,62.70
2023-04-24T03:52:25.482Z,62.97
2023-04-24T03:52:58.158Z,63.30
2023-04-24T03:53:41.001Z,62.35
2023-04-24T03:54:15.865Z,62.75
2023-04-24T03:54:48.414Z,63.45
2023-04-24T03:55:22.792Z,63.00
2023-04-24T03:55:56.519Z,63.30
2023-04-24T03:56:29.553Z,63.20
2023-04-24T03:57:04.421Z,62.83
2023-04-24T03:57:38.163Z,62.40
2023-04-24T03:58:23.314Z,63.30
2023-04-24T03:58:57.096Z,63.28
2023-04-24T03:59:29.753Z,63.03
2023-04-24T04:00:24.097Z,63.40
2023-04-24T04:01:08.529Z,62.85
2023-04-24T04:01:55.205Z,62.72
2023-04-24T04:02:27.935Z,62.90
2023-04-24T04:03:01.958Z,63.00
2023-04-24T04:03:36.065Z,62.92
2023-04-24T04:04:09.440Z,63.17
2023-04-24T04:04:43.483Z,62.90
2023-04-24T04:05:17.614Z,62.78
2023-04-24T04:05:50.297Z,64.07
2023-04-24T04:06:22.998Z,63.85
2023-04-24T04:07:02.075Z,63.63
2023-04-24T04:07:34.630Z,63.97
2023-04-24T04:08:07.336Z,64.82
2023-04-24T04:08:40.798Z,65.10
2023-04-24T04:09:13.318Z,64.30
2023-04-24T04:09:46.238Z,65.38
2023-04-24T04:10:19.800Z,64.38
2023-04-24T04:10:53.711Z,63.55
2023-04-24T04:11:26.378Z,62.75
2023-04-24T04:11:59.793Z,62.63
2023-04-24T04:12:32.400Z,62.65
2023-04-24T04:13:04.975Z,61.85
2023-04-24T04:13:38.492Z,62.70
2023-04-24T04:14:11.385Z,63.30
2023-04-24T04:14:46.883Z,62.15
2023-04-24T04:15:20.597Z,61.80
2023-04-24T04:15:54.295Z,61.42
2023-04-24T04:16:26.957Z,62.08
2023-04-24T04:17:05.664Z,61.95
2023-04-24T04:17:39.084Z,61.83
2023-04-24T04:18:13.335Z,61.83
2023-04-24T04:18:47.416Z,60.88
2023-04-24T04:19:19.927Z,61.78
2023-04-24T04:19:52.540Z,59.85
2023-04-24T04:20:25.638Z,60.08
2023-04-24T04:20:59.651Z,59.83
2023-04-24T04:21:33.112Z,59.33
2023-04-24T04:22:28.492Z,58.90
2023-04-24T04:23:02.276Z,58.88
2023-04-24T04:23:46.426Z,58.58
2023-04-24T04:24:25.021Z,58.25
2023-04-24T04:24:59.149Z,59.28
2023-04-24T04:25:32.377Z,59.03
2023-04-24T04:26:06.791Z,59.60
2023-04-24T04:27:05.803Z,58.53
2023-04-24T04:27:43.973Z,59.00
2023-04-24T04:28:20.945Z,58.75
2023-04-24T04:28:55.566Z,58.30
2023-04-24T04:29:28.204Z,58.17
2023-04-24T04:30:05.490Z,58.42
2023-04-24T04:30:45.010Z,58.00
2023-04-24T04:31:19.876Z,58.35
2023-04-24T04:31:52.583Z,57.88
2023-04-24T04:32:27.179Z,58.95
2023-04-24T04:33:00.330Z,58.22
2023-04-24T04:33:33.182Z,58.78
2023-04-24T04:34:06.833Z,58.65
2023-04-24T04:34:40.668Z,58.33
2023-04-24T04:35:14.780Z,57.95
2023-04-24T04:35:50.954Z,58.33
2023-04-24T04:36:24.968Z,56.92
2023-04-24T04:37:04.579Z,58.22
2023-04-24T04:37:53.843Z,57.28
2023-04-24T04:38:49.460Z,57.70
2023-04-24T04:39:42.311Z,56.83
2023-04-24T04:40:27.817Z,57.15
2023-04-24T04:41:08.204Z,56.78
2023-04-24T04:41:42.007Z,56.83
2023-04-24T04:42:16.430Z,57.65
2023-04-24T04:42:53.996Z,57.28
2023-04-24T04:43:27.474Z,57.65
2023-04-24T04:44:00.787Z,57.53
2023-04-24T04:44:36.787Z,57.65
2023-04-24T04:45:11.981Z,58.00
2023-04-24T04:45:58.463Z,57.97
2023-04-24T04:46:50.101Z,59.03
2023-04-24T04:47:33.514Z,58.75
2023-04-24T04:48:08.787Z,58.60
2023-04-24T04:48:41.916Z,58.85
2023-04-24T04:49:17.799Z,58.83
2023-04-24T04:49:52.576Z,59.78
2023-04-24T04:50:28.793Z,60.13
2023-04-24T04:51:08.323Z,60.50
2023-04-24T04:51:42.859Z,61.00
2023-04-24T04:52:17.750Z,60.45
2023-04-24T04:52:52.909Z,61.25
2023-04-24T04:53:33.157Z,62.00
2023-04-24T04:54:06.809Z,61.70
2023-04-24T04:54:39.768Z,62.53
2023-04-24T04:55:14.327Z,62.50
2023-04-24T04:56:15.372Z,62.08
2023-04-24T04:56:51.954Z,62.97
2023-04-24T04:57:24.912Z,62.30
2023-04-24T04:57:58.534Z,61.20
2023-04-24T04:58:31.700Z,64.05
2023-04-24T04:59:07.360Z,65.18
2023-04-24T04:59:42.381Z,63.83
2023-04-24T05:00:20.487Z,64.38
2023-04-24T05:00:58.343Z,63.05
2023-04-24T05:01:42.643Z,63.38
2023-04-24T05:02:17.061Z,64.63
2023-04-24T05:02:49.868Z,64.10
2023-04-24T05:03:23.738Z,64.93
2023-04-24T05:04:03.029Z,67.28
2023-04-24T05:04:35.932Z,65.00
2023-04-24T05:05:10.935Z,67.13
2023-04-24T05:05:43.681Z,67.97
2023-04-24T05:06:20.020Z,66.90
2023-04-24T05:06:52.907Z,68.53
2023-04-24T05:07:26.691Z,66.38
2023-04-24T05:08:02.040Z,68.15
2023-04-24T05:08:34.772Z,67.63
2023-04-24T05:09:08.532Z,67.80
2023-04-24T05:10:03.277Z,65.95
2023-04-24T05:10:35.803Z,69.68
2023-04-24T05:11:08.448Z,67.78
2023-04-24T05:11:43.412Z,67.55
2023-04-24T05:12:16.667Z,66.93
2023-04-24T05:12:56.199Z,70.20
2023-04-24T05:13:38.971Z,70.57
2023-04-24T05:14:20.113Z,69.35
2023-04-24T05:14:53.705Z,68.13
2023-04-24T05:15:26.313Z,69.38
2023-04-24T05:15:59.943Z,69.85
2023-04-24T05:16:34.110Z,68.50
2023-04-24T05:17:07.586Z,69.47
2023-04-24T05:17:41.579Z,69.35
2023-04-24T05:18:14.895Z,69.97
2023-04-24T05:18:47.454Z,67.85
2023-04-24T05:19:24.543Z,69.22
2023-04-24T05:19:57.050Z,66.18
2023-04-24T05:20:30.330Z,67.68
2023-04-24T05:21:03.961Z,65.97
2023-04-24T05:21:36.497Z,62.85
2023-04-24T05:22:10.599Z,64.70
2023-04-24T05:22:51.947Z,66.25
2023-04-24T05:23:26.042Z,64.45
2023-04-24T05:24:01.692Z,63.53
2023-04-24T05:24:50.083Z,63.40
2023-04-24T05:25:43.961Z,65.75
2023-04-24T05:26:18.849Z,63.72
2023-04-24T05:26:52.902Z,62.85
2023-04-24T05:27:31.199Z,63.22
2023-04-24T05:28:03.760Z,63.88
2023-04-24T05:28:37.845Z,65.47
2023-04-24T05:29:15.622Z,66.22
2023-04-24T05:29:48.898Z,64.95
2023-04-24T05:30:22.555Z,65.22
2023-04-24T05:30:56.852Z,64.68
2023-04-24T05:31:32.017Z,65.20
2023-04-24T05:32:05.862Z,65.28
2023-04-24T05:32:38.446Z,64.70
2023-04-24T05:33:11.124Z,65.40
2023-04-24T05:33:44.774Z,66.18
2023-04-24T05:34:17.818Z,63.53
2023-04-24T05:34:52.677Z,65.20
2023-04-24T05:35:26.049Z,64.90
2023-04-24T05:35:59.597Z,63.47
2023-04-24T05:36:32.165Z,64.45
2023-04-24T05:37:09.062Z,64.38
2023-04-24T05:37:42.556Z,64.22
2023-04-24T05:38:18.788Z,63.50
2023-04-24T05:38:51.267Z,62.10
2023-04-24T05:39:26.022Z,63.85
2023-04-24T05:39:59.629Z,61.88
2023-04-24T05:40:32.764Z,63.22
2023-04-24T05:41:06.474Z,62.40
2023-04-24T05:41:38.913Z,62.13
2023-04-24T05:42:12.994Z,63.13
2023-04-24T05:42:46.523Z,63.25
2023-04-24T05:43:19.093Z,63.78
2023-04-24T05:43:52.114Z,61.85
2023-04-24T05:44:25.680Z,61.53
2023-04-24T05:44:58.191Z,63.53
2023-04-24T05:45:30.730Z,62.40
2023-04-24T05:46:04.374Z,62.47
2023-04-24T05:46:36.918Z,63.70
2023-04-24T05:47:09.963Z,62.10
2023-04-24T05:47:43.611Z,62.88
2023-04-24T05:48:16.950Z,63.10
2023-04-24T05:48:49.418Z,62.17
2023-04-24T05:49:22.886Z,61.83
2023-04-24T05:49:55.625Z,63.80
2023-04-24T05:50:28.295Z,63.08
2023-04-24T05:51:01.898Z,62.80
2023-04-24T05:51:34.454Z,64.57
2023-04-24T05:52:09.699Z,62.17
2023-04-24T05:52:45.003Z,62.60
2023-04-24T05:53:29.653Z,62.45
2023-04-24T05:54:02.787Z,61.80
2023-04-24T05:54:36.338Z,62.00
2023-04-24T05:55:09.912Z,62.28
2023-04-24T05:55:44.869Z,62.15
2023-04-24T05:56:18.425Z,61.55
2023-04-24T05:56:51.314Z,61.70
2023-04-24T05:57:35.362Z,60.70
2023-04-24T05:58:11.417Z,60.53
2023-04-24T05:58:44.550Z,62.00
2023-04-24T05:59:18.051Z,61.35
2023-04-24T05:59:50.661Z,62.38
2023-04-24T06:00:25.658Z,61.95
2023-04-24T06:01:06.046Z,59.78
2023-04-24T06:01:40.607Z,61.45
2023-04-24T06:02:19.978Z,61.97
2023-04-24T06:02:53.835Z,60.85
2023-04-24T06:03:28.375Z,62.38
2023-04-24T06:04:02.154Z,60.95
2023-04-24T06:04:34.991Z,63.08
2023-04-24T06:05:10.563Z,61.95
2023-04-24T06:05:43.090Z,62.33
2023-04-24T06:06:16.670Z,61.28
2023-04-24T06:06:51.788Z,62.65
2023-04-24T06:07:24.670Z,62.20
2023-04-24T06:07:58.347Z,63.33
2023-04-24T06:08:35.357Z,62.05
2023-04-24T06:09:09.288Z,62.55
2023-04-24T06:09:41.973Z,62.42
2023-04-24T06:10:16.474Z,62.45
2023-04-24T06:10:50.859Z,62.17
2023-04-24T06:11:25.843Z,61.88
2023-04-24T06:12:00.924Z,61.60
2023-04-24T06:12:42.731Z,61.07
2023-04-24T06:13:22.279Z,61.17
2023-04-24T06:14:26.629Z,61.58
2023-04-24T06:15:18.932Z,61.65
2023-04-24T06:15:58.652Z,61.70
2023-04-24T06:16:39.988Z,61.80
2023-04-24T06:17:23.668Z,61.17
2023-04-24T06:17:56.762Z,60.50
2023-04-24T06:18:29.330Z,61.08
2023-04-24T06:19:04.022Z,61.80
2023-04-24T06:19:36.491Z,61.67
2023-04-24T06:20:09.841Z,60.22
2023-04-24T06:20:43.384Z,60.75
2023-04-24T06:21:17.587Z,60.97
2023-04-24T06:21:51.005Z,63.20
2023-04-24T06:22:24.492Z,62.75
2023-04-24T06:22:56.913Z,60.88
2023-04-24T06:23:30.355Z,61.15
2023-04-24T06:24:04.711Z,60.97
2023-04-24T06:24:37.899Z,62.58
2023-04-24T06:25:11.682Z,60.20
2023-04-24T06:25:44.205Z,60.10
2023-04-24T06:26:21.809Z,59.95
2023-04-24T06:26:54.267Z,59.95
2023-04-24T06:27:27.772Z,60.72
2023-04-24T06:28:01.676Z,61.60
2023-04-24T06:28:37.136Z,60.90
2023-04-24T06:29:09.614Z,60.35
2023-04-24T06:29:42.437Z,60.00
2023-04-24T06:30:16.097Z,59.05
2023-04-24T06:30:48.568Z,60.35
2023-04-24T06:31:21.254Z,59.80
2023-04-24T06:31:54.755Z,61.22
2023-04-24T06:32:32.167Z,60.42
2023-04-24T06:33:19.349Z,60.40
2023-04-24T06:33:53.149Z,60.90
2023-04-24T06:34:26.631Z,59.30
2023-04-24T06:34:59.693Z,60.83
2023-04-24T06:35:33.262Z,61.13
2023-04-24T06:36:06.208Z,60.88
2023-04-24T06:36:39.720Z,60.35
2023-04-24T06:37:12.152Z,61.13
2023-04-24T06:37:44.826Z,61.03
2023-04-24T06:38:18.341Z,60.97
2023-04-24T06:38:50.809Z,60.50
2023-04-24T06:39:23.233Z,60.40
2023-04-24T06:39:56.728Z,61.10
2023-04-24T06:40:29.200Z,61.22
2023-04-24T06:41:02.681Z,63.20
2023-04-24T06:41:35.699Z,61.05
2023-04-24T06:42:10.330Z,61.70
2023-04-24T06:42:43.826Z,61.13
2023-04-24T06:43:17.647Z,59.10
2023-04-24T06:43:51.142Z,61.28
2023-04-24T06:44:23.630Z,60.85
2023-04-24T06:44:57.100Z,60.60
2023-04-24T06:45:29.576Z,60.33
2023-04-24T06:46:04.406Z,61.28
2023-04-24T06:46:38.777Z,61.55
2023-04-24T06:47:14.558Z,61.75
2023-04-24T06:47:47.763Z,60.67
2023-04-24T06:48:21.219Z,61.15
2023-04-24T06:48:56.601Z,60.35
2023-04-24T06:49:30.012Z,60.92
2023-04-24T06:50:02.829Z,60.42
2023-04-24T06:50:36.275Z,59.45
2023-04-24T06:51:08.717Z,61.22
2023-04-24T06:51:41.180Z,60.97
2023-04-24T06:52:14.648Z,60.63
2023-04-24T06:52:47.337Z,60.63
2023-04-24T06:53:19.846Z,60.08
2023-04-24T06:53:54.910Z,61.13
2023-04-24T06:54:29.730Z,60.47
2023-04-24T06:55:03.268Z,61.58
2023-04-24T06:55:37.630Z,59.63
2023-04-24T06:56:10.122Z,60.08
2023-04-24T06:56:43.619Z,60.78
2023-04-24T06:57:17.147Z,61.55
2023-04-24T06:57:50.824Z,60.92
2023-04-24T06:58:25.461Z,60.38
2023-04-24T06:58:57.950Z,59.40
2023-04-24T06:59:31.673Z,60.03
2023-04-24T07:00:06.136Z,60.20
2023-04-24T07:00:39.710Z,60.13
2023-04-24T07:01:12.446Z,60.53
2023-04-24T07:01:45.154Z,60.78
2023-04-24T07:02:18.959Z,61.08
2023-04-24T07:02:51.733Z,60.72
2023-04-24T07:03:24.584Z,59.78
2023-04-24T07:03:58.664Z,61.38
2023-04-24T07:04:31.909Z,61.08
2023-04-24T07:05:05.843Z,59.97
2023-04-24T07:05:39.243Z,59.85
2023-04-24T07:06:13.556Z,60.28
2023-04-24T07:06:47.042Z,61.00
2023-04-24T07:07:19.520Z,59.90
2023-04-24T07:07:53.338Z,59.40
2023-04-24T07:08:26.424Z,59.80
2023-04-24T07:08:58.993Z,61.05
2023-04-24T07:09:32.914Z,60.58
2023-04-24T07:10:07.067Z,60.10
2023-04-24T07:10:39.827Z,58.88
2023-04-24T07:11:13.306Z,60.97
2023-04-24T07:11:45.854Z,60.83
2023-04-24T07:12:21.589Z,62.08
2023-04-24T07:12:55.008Z,59.67
2023-04-24T07:13:29.834Z,60.95
2023-04-24T07:14:02.322Z,59.55
2023-04-24T07:14:35.837Z,59.53
2023-04-24T07:15:09.726Z,59.33
2023-04-24T07:15:42.486Z,59.33
2023-04-24T07:16:16.022Z,59.30
2023-04-24T07:16:48.681Z,61.28
2023-04-24T07:17:22.093Z,59.03
2023-04-24T07:17:54.668Z,60.65
2023-04-24T07:18:28.175Z,58.63
2023-04-24T07:19:01.652Z,58.97
2023-04-24T07:19:35.238Z,58.38
2023-04-24T07:20:10.321Z,59.88
2023-04-24T07:20:42.788Z,58.63
2023-04-24T07:21:16.577Z,59.70
2023-04-24T07:21:49.102Z,59.25
2023-04-24T07:22:21.929Z,58.58
2023-04-24T07:22:55.800Z,58.70
2023-04-24T07:23:28.475Z,59.20
2023-04-24T07:24:02.625Z,58.95
2023-04-24T07:24:35.163Z,58.15
2023-04-24T07:25:08.676Z,59.63
2023-04-24T07:25:42.251Z,60.08
2023-04-24T07:26:15.800Z,59.33
2023-04-24T07:26:48.362Z,58.78